PMDY METAR and TAF weather

Enter ICAO airport designator
Station Type Date Time Source
PMDY METAR 2022/07/03 13:56 UTC NOAA

PMDY 031356Z AUTO 08008KT 10SM FEW017 26/24 A3016 RMK AO2 SLP213 T02610239 TSNO


Station Type Date Time Source
PMDY Decoded METAR 2022/07/03 13:56 UTC NOAA

Sand Island, Henderson Field Airport, HI, United States (PMDY) 28-13N 177-22W 6M
Jul 03, 2022 - 09:56 AM EDT / 2022.07.03 1356 UTC
Wind: from the E (080 degrees) at 9 MPH (8 KT):0
Visibility: 10 mile(s):0
Sky conditions: mostly clear
Temperature: 79.0 F (26.1 C)
Dew Point: 75.0 F (23.9 C)
Relative Humidity: 87%
Pressure (altimeter): 30.16 in. Hg (1021 hPa)
ob: PMDY 031356Z AUTO 08008KT 10SM FEW017 26/24 A3016 RMK AO2 SLP213 T02610239 TSNO
cycle: 14

Station Type Date Time Source
PMDY TAF 2022/07/03 12:39 UTC NOAA

TAF PMDY 031137Z 0312/0412 09010KT P6SM VCSH SCT020 BKN045
TEMPO 0312/0316 4SM SHRA BR SCT015 BKN025
FM031800 11015KT P6SM SCT025 SCT035 BKN045
FM040900 07012KT P6SM SCT025 SCT045

Example: see airport list